sensor_id;sensor_type;location;lat;lon;timestamp;pressure;altitude;pressure_sealevel;temperature;humidity
67377;BME280;54261;46.086;6.588;2023-04-07T00:04:19;92526.28;;;8.89;26.41
67377;BME280;54261;46.086;6.588;2023-04-07T00:09:21;92521.06;;;6.84;30.55
67377;BME280;54261;46.086;6.588;2023-04-07T00:14:23;92511.88;;;8.16;29.02
67377;BME280;54261;46.086;6.588;2023-04-07T00:19:25;92509.97;;;7.52;29.65
67377;BME280;54261;46.086;6.588;2023-04-07T00:24:27;92494.63;;;7.30;30.40
67377;BME280;54261;46.086;6.588;2023-04-07T00:29:35;92500.38;;;6.23;31.77
67377;BME280;54261;46.086;6.588;2023-04-07T00:34:37;92471.75;;;6.62;32.02
67377;BME280;54261;46.086;6.588;2023-04-07T00:39:38;92481.16;;;6.93;30.92
67377;BME280;54261;46.086;6.588;2023-04-07T00:44:40;92464.34;;;6.92;30.25
67377;BME280;54261;46.086;6.588;2023-04-07T00:49:42;92453.97;;;5.67;30.94
67377;BME280;54261;46.086;6.588;2023-04-07T00:54:44;92446.06;;;6.52;29.96
67377;BME280;54261;46.086;6.588;2023-04-07T00:59:56;92452.16;;;6.72;28.84
67377;BME280;54261;46.086;6.588;2023-04-07T01:05:14;92442.72;;;6.61;29.86
67377;BME280;54261;46.086;6.588;2023-04-07T01:10:21;92433.00;;;6.37;30.39
67377;BME280;54261;46.086;6.588;2023-04-07T01:15:32;92422.94;;;6.48;29.51
67377;BME280;54261;46.086;6.588;2023-04-07T01:20:36;92403.81;;;6.60;30.38
67377;BME280;54261;46.086;6.588;2023-04-07T01:30:51;92398.03;;;6.72;30.49
67377;BME280;54261;46.086;6.588;2023-04-07T01:35:56;92414.94;;;6.95;29.89
67377;BME280;54261;46.086;6.588;2023-04-07T01:41:00;92411.44;;;6.33;30.84
67377;BME280;54261;46.086;6.588;2023-04-07T01:46:04;92423.22;;;6.13;31.40
67377;BME280;54261;46.086;6.588;2023-04-07T01:51:06;92406.06;;;5.48;31.83
67377;BME280;54261;46.086;6.588;2023-04-07T01:56:09;92410.25;;;6.25;31.10
67377;BME280;54261;46.086;6.588;2023-04-07T02:01:12;92414.38;;;6.65;30.97
67377;BME280;54261;46.086;6.588;2023-04-07T02:06:19;92408.53;;;5.39;32.02
67377;BME280;54261;46.086;6.588;2023-04-07T02:11:24;92389.38;;;6.47;30.29
67377;BME280;54261;46.086;6.588;2023-04-07T02:16:31;92383.75;;;6.62;30.50
67377;BME280;54261;46.086;6.588;2023-04-07T02:21:36;92392.41;;;6.73;30.38
67377;BME280;54261;46.086;6.588;2023-04-07T02:26:41;92388.19;;;6.06;31.35
67377;BME280;54261;46.086;6.588;2023-04-07T02:31:43;92359.50;;;6.17;31.41
67377;BME280;54261;46.086;6.588;2023-04-07T02:36:45;92362.75;;;6.28;31.66
67377;BME280;54261;46.086;6.588;2023-04-07T02:41:47;92372.69;;;6.55;30.85
67377;BME280;54261;46.086;6.588;2023-04-07T02:46:49;92359.03;;;5.95;32.40
67377;BME280;54261;46.086;6.588;2023-04-07T02:51:51;92347.03;;;5.79;31.85
67377;BME280;54261;46.086;6.588;2023-04-07T02:56:52;92343.84;;;6.43;31.38
67377;BME280;54261;46.086;6.588;2023-04-07T03:01:55;92342.69;;;6.02;32.06
67377;BME280;54261;46.086;6.588;2023-04-07T03:06:57;92342.47;;;6.60;32.03
67377;BME280;54261;46.086;6.588;2023-04-07T03:12:02;92326.50;;;6.60;32.26
67377;BME280;54261;46.086;6.588;2023-04-07T03:17:08;92327.88;;;6.10;32.12
67377;BME280;54261;46.086;6.588;2023-04-07T03:22:10;92304.94;;;5.48;31.33
67377;BME280;54261;46.086;6.588;2023-04-07T03:27:19;92305.41;;;6.30;31.21
67377;BME280;54261;46.086;6.588;2023-04-07T03:32:23;92296.25;;;5.18;32.54
67377;BME280;54261;46.086;6.588;2023-04-07T03:37:25;92290.50;;;6.15;30.89
67377;BME280;54261;46.086;6.588;2023-04-07T03:42:28;92287.16;;;6.23;31.28
67377;BME280;54261;46.086;6.588;2023-04-07T03:47:35;92251.72;;;6.09;32.24
67377;BME280;54261;46.086;6.588;2023-04-07T03:52:39;92259.22;;;6.49;30.49
67377;BME280;54261;46.086;6.588;2023-04-07T03:57:52;92240.38;;;6.17;30.91
67377;BME280;54261;46.086;6.588;2023-04-07T04:02:54;92234.91;;;6.92;30.26
67377;BME280;54261;46.086;6.588;2023-04-07T04:07:57;92237.50;;;6.84;30.04
67377;BME280;54261;46.086;6.588;2023-04-07T04:13:00;92224.09;;;7.12;29.70
67377;BME280;54261;46.086;6.588;2023-04-07T04:18:04;92204.97;;;7.41;29.85
67377;BME280;54261;46.086;6.588;2023-04-07T04:23:07;92205.28;;;6.80;30.03
67377;BME280;54261;46.086;6.588;2023-04-07T04:28:10;92203.19;;;6.91;29.94
67377;BME280;54261;46.086;6.588;2023-04-07T04:33:12;92203.06;;;6.17;30.85
67377;BME280;54261;46.086;6.588;2023-04-07T04:38:32;92184.16;;;6.70;30.93
67377;BME280;54261;46.086;6.588;2023-04-07T04:43:42;92182.28;;;6.70;30.97
67377;BME280;54261;46.086;6.588;2023-04-07T04:48:48;92181.03;;;5.69;32.47
67377;BME280;54261;46.086;6.588;2023-04-07T04:53:52;92195.03;;;4.32;32.29
67377;BME280;54261;46.086;6.588;2023-04-07T04:58:56;92276.22;;;-1.58;45.16
67377;BME280;54261;46.086;6.588;2023-04-07T05:04:07;92308.66;;;-0.37;44.25
67377;BME280;54261;46.086;6.588;2023-04-07T05:09:15;92311.63;;;-0.28;44.18
67377;BME280;54261;46.086;6.588;2023-04-07T05:14:20;92328.91;;;1.49;42.40
67377;BME280;54261;46.086;6.588;2023-04-07T05:19:28;92334.03;;;3.63;39.52
67377;BME280;54261;46.086;6.588;2023-04-07T05:24:37;92319.34;;;3.36;40.15
67377;BME280;54261;46.086;6.588;2023-04-07T05:29:39;92336.91;;;5.62;37.31
67377;BME280;54261;46.086;6.588;2023-04-07T05:34:46;92340.78;;;6.36;36.31
67377;BME280;54261;46.086;6.588;2023-04-07T05:39:50;92360.78;;;5.86;37.99
67377;BME280;54261;46.086;6.588;2023-04-07T05:44:52;92361.88;;;6.32;37.09
67377;BME280;54261;46.086;6.588;2023-04-07T05:49:56;92357.59;;;5.84;38.01
67377;BME280;54261;46.086;6.588;2023-04-07T05:54:59;92355.44;;;5.09;39.87
67377;BME280;54261;46.086;6.588;2023-04-07T06:00:05;92340.41;;;4.75;40.48
67377;BME280;54261;46.086;6.588;2023-04-07T06:05:14;92352.69;;;4.71;40.58
67377;BME280;54261;46.086;6.588;2023-04-07T06:10:17;92359.28;;;4.54;42.08
67377;BME280;54261;46.086;6.588;2023-04-07T06:15:19;92347.91;;;3.50;43.64
67377;BME280;54261;46.086;6.588;2023-04-07T06:20:21;92332.97;;;3.19;44.96
67377;BME280;54261;46.086;6.588;2023-04-07T06:25:25;92345.63;;;3.73;45.08
67377;BME280;54261;46.086;6.588;2023-04-07T06:30:27;92347.81;;;4.78;42.48
67377;BME280;54261;46.086;6.588;2023-04-07T06:35:30;92363.03;;;4.48;42.11
67377;BME280;54261;46.086;6.588;2023-04-07T06:40:32;92352.81;;;4.07;44.09
67377;BME280;54261;46.086;6.588;2023-04-07T06:45:34;92363.63;;;4.94;42.85
67377;BME280;54261;46.086;6.588;2023-04-07T06:50:36;92374.03;;;4.66;42.50
67377;BME280;54261;46.086;6.588;2023-04-07T06:55:41;92394.19;;;5.16;41.51
67377;BME280;54261;46.086;6.588;2023-04-07T07:00:43;92414.47;;;3.98;43.43
67377;BME280;54261;46.086;6.588;2023-04-07T07:05:45;92406.03;;;4.26;44.21
67377;BME280;54261;46.086;6.588;2023-04-07T07:10:48;92415.97;;;5.18;42.54
67377;BME280;54261;46.086;6.588;2023-04-07T07:15:50;92412.59;;;4.39;43.23
67377;BME280;54261;46.086;6.588;2023-04-07T07:20:52;92400.00;;;5.42;41.44
67377;BME280;54261;46.086;6.588;2023-04-07T07:25:54;92427.34;;;4.21;42.07
67377;BME280;54261;46.086;6.588;2023-04-07T07:30:56;92441.69;;;4.79;41.48
67377;BME280;54261;46.086;6.588;2023-04-07T07:35:57;92437.63;;;3.93;41.64
67377;BME280;54261;46.086;6.588;2023-04-07T07:40:59;92435.69;;;4.92;41.27
67377;BME280;54261;46.086;6.588;2023-04-07T07:46:02;92427.84;;;4.23;41.18
67377;BME280;54261;46.086;6.588;2023-04-07T07:51:04;92435.22;;;5.34;41.09
67377;BME280;54261;46.086;6.588;2023-04-07T07:56:05;92427.72;;;4.68;41.06
67377;BME280;54261;46.086;6.588;2023-04-07T08:01:07;92420.97;;;5.24;40.87
67377;BME280;54261;46.086;6.588;2023-04-07T08:06:09;92393.81;;;5.47;40.56
67377;BME280;54261;46.086;6.588;2023-04-07T08:11:12;92413.63;;;4.67;41.44
67377;BME280;54261;46.086;6.588;2023-04-07T08:16:15;92432.94;;;4.49;42.82
67377;BME280;54261;46.086;6.588;2023-04-07T08:21:17;92417.22;;;3.83;42.60
67377;BME280;54261;46.086;6.588;2023-04-07T08:26:20;92406.63;;;4.77;42.83
67377;BME280;54261;46.086;6.588;2023-04-07T08:31:22;92435.06;;;4.76;42.06
67377;BME280;54261;46.086;6.588;2023-04-07T08:36:25;92434.84;;;4.43;43.74
67377;BME280;54261;46.086;6.588;2023-04-07T08:41:39;92430.31;;;4.44;44.28
67377;BME280;54261;46.086;6.588;2023-04-07T08:46:42;92430.13;;;4.94;43.48
67377;BME280;54261;46.086;6.588;2023-04-07T08:51:46;92431.41;;;5.40;42.65
67377;BME280;54261;46.086;6.588;2023-04-07T08:56:49;92427.03;;;5.54;43.30
67377;BME280;54261;46.086;6.588;2023-04-07T09:01:51;92430.81;;;3.31;46.91
67377;BME280;54261;46.086;6.588;2023-04-07T09:06:53;92447.78;;;4.25;46.64
67377;BME280;54261;46.086;6.588;2023-04-07T09:11:55;92443.41;;;5.18;46.32
67377;BME280;54261;46.086;6.588;2023-04-07T09:16:57;92435.53;;;5.08;46.18
67377;BME280;54261;46.086;6.588;2023-04-07T09:22:00;92420.28;;;6.81;44.03
67377;BME280;54261;46.086;6.588;2023-04-07T09:27:13;92414.25;;;4.30;47.21
67377;BME280;54261;46.086;6.588;2023-04-07T09:32:34;92414.59;;;6.02;44.68
67377;BME280;54261;46.086;6.588;2023-04-07T09:37:37;92414.09;;;6.19;43.10
67377;BME280;54261;46.086;6.588;2023-04-07T09:42:46;92427.06;;;2.61;57.70
67377;BME280;54261;46.086;6.588;2023-04-07T09:47:48;92437.16;;;4.79;50.86
67377;BME280;54261;46.086;6.588;2023-04-07T09:52:51;92421.31;;;5.80;46.16
67377;BME280;54261;46.086;6.588;2023-04-07T09:57:54;92426.81;;;3.79;49.23
67377;BME280;54261;46.086;6.588;2023-04-07T10:02:56;92428.09;;;6.44;49.59
67377;BME280;54261;46.086;6.588;2023-04-07T10:08:00;92407.00;;;7.46;45.81
67377;BME280;54261;46.086;6.588;2023-04-07T10:13:03;92410.00;;;7.81;44.99
67377;BME280;54261;46.086;6.588;2023-04-07T10:18:06;92415.31;;;7.95;43.31
67377;BME280;54261;46.086;6.588;2023-04-07T10:23:19;92417.09;;;9.00;40.78
67377;BME280;54261;46.086;6.588;2023-04-07T10:28:24;92418.81;;;9.45;40.56
67377;BME280;54261;46.086;6.588;2023-04-07T10:33:54;92414.63;;;10.23;39.75
67377;BME280;54261;46.086;6.588;2023-04-07T10:44:09;92403.09;;;9.12;41.25
67377;BME280;54261;46.086;6.588;2023-04-07T10:49:33;92405.94;;;1.94;56.93
67377;BME280;54261;46.086;6.588;2023-04-07T10:54:35;92398.22;;;6.28;46.52
67377;BME280;54261;46.086;6.588;2023-04-07T10:59:39;92376.84;;;7.82;43.47
67377;BME280;54261;46.086;6.588;2023-04-07T11:04:43;92405.53;;;7.40;44.00
67377;BME280;54261;46.086;6.588;2023-04-07T11:09:46;92392.25;;;7.85;42.19
67377;BME280;54261;46.086;6.588;2023-04-07T11:14:48;92390.47;;;6.13;46.66
67377;BME280;54261;46.086;6.588;2023-04-07T11:19:51;92393.47;;;4.02;53.76
67377;BME280;54261;46.086;6.588;2023-04-07T11:24:53;92379.25;;;3.48;53.94
67377;BME280;54261;46.086;6.588;2023-04-07T11:29:55;92390.41;;;3.84;58.46
67377;BME280;54261;46.086;6.588;2023-04-07T11:34:57;92387.59;;;6.09;50.40
67377;BME280;54261;46.086;6.588;2023-04-07T11:39:59;92399.63;;;6.39;51.70
67377;BME280;54261;46.086;6.588;2023-04-07T11:45:01;92373.28;;;6.66;45.94
67377;BME280;54261;46.086;6.588;2023-04-07T11:50:04;92393.81;;;3.05;55.78
67377;BME280;54261;46.086;6.588;2023-04-07T11:55:06;92401.06;;;1.13;62.06
67377;BME280;54261;46.086;6.588;2023-04-07T12:00:10;92397.63;;;1.23;64.23
67377;BME280;54261;46.086;6.588;2023-04-07T12:05:12;92408.03;;;2.28;62.11
67377;BME280;54261;46.086;6.588;2023-04-07T12:15:20;92421.22;;;1.40;63.08
67377;BME280;54261;46.086;6.588;2023-04-07T12:20:22;92439.91;;;-0.49;67.88
67377;BME280;54261;46.086;6.588;2023-04-07T12:25:24;92442.38;;;-0.65;68.18
67377;BME280;54261;46.086;6.588;2023-04-07T12:30:26;92435.53;;;-0.06;67.13
67377;BME280;54261;46.086;6.588;2023-04-07T12:35:29;92460.66;;;-1.47;71.06
67377;BME280;54261;46.086;6.588;2023-04-07T12:40:31;92449.34;;;0.07;68.98
67377;BME280;54261;46.086;6.588;2023-04-07T12:45:33;92463.81;;;0.37;63.97
67377;BME280;54261;46.086;6.588;2023-04-07T12:50:35;92482.19;;;0.54;64.63
67377;BME280;54261;46.086;6.588;2023-04-07T12:55:38;92485.59;;;1.87;61.40
67377;BME280;54261;46.086;6.588;2023-04-07T13:00:39;92480.63;;;2.48;57.96
67377;BME280;54261;46.086;6.588;2023-04-07T13:05:42;92481.91;;;2.76;56.39
67377;BME280;54261;46.086;6.588;2023-04-07T13:10:44;92479.50;;;-0.72;67.39
67377;BME280;54261;46.086;6.588;2023-04-07T13:15:46;92484.97;;;1.49;63.42
67377;BME280;54261;46.086;6.588;2023-04-07T13:20:47;92474.59;;;0.30;63.06
67377;BME280;54261;46.086;6.588;2023-04-07T13:26:09;92484.59;;;0.60;64.36
67377;BME280;54261;46.086;6.588;2023-04-07T13:31:12;92464.19;;;2.51;58.45
67377;BME280;54261;46.086;6.588;2023-04-07T13:36:16;92452.94;;;2.95;55.66
67377;BME280;54261;46.086;6.588;2023-04-07T13:41:20;92470.25;;;2.30;55.05
67377;BME280;54261;46.086;6.588;2023-04-07T13:46:22;92460.94;;;-1.04;69.34
67377;BME280;54261;46.086;6.588;2023-04-07T13:51:29;92452.75;;;1.72;59.10
67377;BME280;54261;46.086;6.588;2023-04-07T13:56:31;92460.72;;;2.71;56.74
67377;BME280;54261;46.086;6.588;2023-04-07T14:01:33;92449.09;;;3.83;54.56
67377;BME280;54261;46.086;6.588;2023-04-07T14:06:36;92431.03;;;5.90;53.16
67377;BME280;54261;46.086;6.588;2023-04-07T14:11:38;92434.72;;;6.61;49.68
67377;BME280;54261;46.086;6.588;2023-04-07T14:16:40;92406.50;;;7.30;49.59
67377;BME280;54261;46.086;6.588;2023-04-07T14:21:42;92398.81;;;7.79;46.18
67377;BME280;54261;46.086;6.588;2023-04-07T14:26:44;92393.50;;;8.02;45.73
67377;BME280;54261;46.086;6.588;2023-04-07T14:31:46;92384.63;;;8.38;44.71
67377;BME280;54261;46.086;6.588;2023-04-07T14:36:55;92395.91;;;3.08;56.13
67377;BME280;54261;46.086;6.588;2023-04-07T14:41:59;92395.28;;;1.42;61.55
67377;BME280;54261;46.086;6.588;2023-04-07T14:47:01;92385.06;;;5.85;53.33
67377;BME280;54261;46.086;6.588;2023-04-07T14:52:03;92364.31;;;7.32;53.26
67377;BME280;54261;46.086;6.588;2023-04-07T14:57:05;92382.84;;;8.25;49.25
67377;BME280;54261;46.086;6.588;2023-04-07T15:02:07;92384.03;;;9.04;50.61
67377;BME280;54261;46.086;6.588;2023-04-07T15:07:09;92390.34;;;6.37;53.88
67377;BME280;54261;46.086;6.588;2023-04-07T15:12:11;92394.63;;;6.52;55.34
67377;BME280;54261;46.086;6.588;2023-04-07T15:17:12;92396.34;;;4.40;56.46
67377;BME280;54261;46.086;6.588;2023-04-07T15:22:14;92388.53;;;8.95;45.69
67377;BME280;54261;46.086;6.588;2023-04-07T15:27:16;92392.72;;;7.64;45.85
67377;BME280;54261;46.086;6.588;2023-04-07T15:32:18;92393.78;;;9.94;43.38
67377;BME280;54261;46.086;6.588;2023-04-07T15:37:20;92389.88;;;11.60;40.06
67377;BME280;54261;46.086;6.588;2023-04-07T15:42:22;92376.28;;;6.17;48.37
67377;BME280;54261;46.086;6.588;2023-04-07T15:47:24;92399.88;;;4.31;56.06
67377;BME280;54261;46.086;6.588;2023-04-07T15:52:25;92405.19;;;5.52;52.36
67377;BME280;54261;46.086;6.588;2023-04-07T15:57:28;92400.97;;;6.70;46.41
67377;BME280;54261;46.086;6.588;2023-04-07T16:02:30;92411.19;;;5.63;49.64
67377;BME280;54261;46.086;6.588;2023-04-07T16:07:32;92403.94;;;2.87;54.26
67377;BME280;54261;46.086;6.588;2023-04-07T16:12:34;92412.59;;;4.63;51.77
67377;BME280;54261;46.086;6.588;2023-04-07T16:17:37;92416.72;;;6.86;46.81
67377;BME280;54261;46.086;6.588;2023-04-07T16:22:44;92400.31;;;3.74;51.25
67377;BME280;54261;46.086;6.588;2023-04-07T16:27:51;92434.13;;;5.59;46.82
67377;BME280;54261;46.086;6.588;2023-04-07T16:32:53;92422.94;;;4.06;49.69
67377;BME280;54261;46.086;6.588;2023-04-07T16:37:56;92418.22;;;3.92;51.27
67377;BME280;54261;46.086;6.588;2023-04-07T16:43:02;92419.81;;;5.93;49.06
67377;BME280;54261;46.086;6.588;2023-04-07T16:48:04;92373.31;;;7.73;43.15
67377;BME280;54261;46.086;6.588;2023-04-07T16:53:06;92437.50;;;6.70;44.11
67377;BME280;54261;46.086;6.588;2023-04-07T16:58:08;92445.38;;;4.24;50.80
67377;BME280;54261;46.086;6.588;2023-04-07T17:03:12;92424.38;;;5.06;48.80
67377;BME280;54261;46.086;6.588;2023-04-07T17:08:15;92436.75;;;6.36;47.54
67377;BME280;54261;46.086;6.588;2023-04-07T17:13:17;92454.53;;;7.58;45.08
67377;BME280;54261;46.086;6.588;2023-04-07T17:18:19;92449.94;;;6.93;45.46
67377;BME280;54261;46.086;6.588;2023-04-07T17:23:21;92430.53;;;7.30;44.66
67377;BME280;54261;46.086;6.588;2023-04-07T17:28:25;92438.53;;;4.47;49.42
67377;BME280;54261;46.086;6.588;2023-04-07T17:33:30;92447.19;;;4.88;49.83
67377;BME280;54261;46.086;6.588;2023-04-07T17:38:32;92459.38;;;6.52;44.99
67377;BME280;54261;46.086;6.588;2023-04-07T17:43:34;92462.75;;;7.75;43.55
67377;BME280;54261;46.086;6.588;2023-04-07T17:48:36;92473.81;;;9.60;40.74
67377;BME280;54261;46.086;6.588;2023-04-07T17:53:38;92473.41;;;8.95;38.99
67377;BME280;54261;46.086;6.588;2023-04-07T17:58:40;92480.25;;;9.50;39.64
67377;BME280;54261;46.086;6.588;2023-04-07T18:03:43;92458.41;;;9.74;39.07
67377;BME280;54261;46.086;6.588;2023-04-07T18:08:46;92483.31;;;9.66;37.74
67377;BME280;54261;46.086;6.588;2023-04-07T18:13:48;92493.16;;;8.85;39.40
67377;BME280;54261;46.086;6.588;2023-04-07T18:18:51;92490.31;;;8.35;40.10
67377;BME280;54261;46.086;6.588;2023-04-07T18:23:53;92489.47;;;8.49;38.68
67377;BME280;54261;46.086;6.588;2023-04-07T18:28:55;92505.09;;;7.82;40.30
67377;BME280;54261;46.086;6.588;2023-04-07T18:33:58;92508.75;;;7.02;41.57
67377;BME280;54261;46.086;6.588;2023-04-07T18:38:59;92504.50;;;7.43;40.97
67377;BME280;54261;46.086;6.588;2023-04-07T18:44:01;92503.69;;;7.01;42.25
67377;BME280;54261;46.086;6.588;2023-04-07T18:49:03;92518.88;;;6.67;41.68
67377;BME280;54261;46.086;6.588;2023-04-07T18:54:05;92525.78;;;6.54;42.53
67377;BME280;54261;46.086;6.588;2023-04-07T18:59:07;92520.91;;;7.36;41.91
67377;BME280;54261;46.086;6.588;2023-04-07T19:04:09;92531.81;;;7.96;41.09
67377;BME280;54261;46.086;6.588;2023-04-07T19:09:11;92534.06;;;7.75;41.42
67377;BME280;54261;46.086;6.588;2023-04-07T19:14:13;92533.38;;;8.11;40.63
67377;BME280;54261;46.086;6.588;2023-04-07T19:19:16;92532.69;;;8.05;39.63
67377;BME280;54261;46.086;6.588;2023-04-07T19:24:18;92528.53;;;7.43;41.93
67377;BME280;54261;46.086;6.588;2023-04-07T19:29:20;92539.38;;;6.72;42.30
67377;BME280;54261;46.086;6.588;2023-04-07T19:34:21;92541.22;;;6.90;42.92
67377;BME280;54261;46.086;6.588;2023-04-07T19:39:23;92537.94;;;7.41;41.66
67377;BME280;54261;46.086;6.588;2023-04-07T19:44:26;92545.16;;;7.26;41.38
67377;BME280;54261;46.086;6.588;2023-04-07T19:49:28;92549.78;;;7.34;40.84
67377;BME280;54261;46.086;6.588;2023-04-07T19:54:30;92550.06;;;7.05;40.98
67377;BME280;54261;46.086;6.588;2023-04-07T19:59:32;92549.81;;;6.49;41.55
67377;BME280;54261;46.086;6.588;2023-04-07T20:04:34;92549.91;;;6.05;42.58
67377;BME280;54261;46.086;6.588;2023-04-07T20:09:35;92556.28;;;7.00;41.07
67377;BME280;54261;46.086;6.588;2023-04-07T20:14:38;92558.00;;;6.58;40.55
67377;BME280;54261;46.086;6.588;2023-04-07T20:19:40;92560.34;;;6.02;41.15
67377;BME280;54261;46.086;6.588;2023-04-07T20:24:42;92565.91;;;6.63;42.00
67377;BME280;54261;46.086;6.588;2023-04-07T20:29:44;92560.34;;;6.59;41.19
67377;BME280;54261;46.086;6.588;2023-04-07T20:34:45;92564.56;;;6.27;41.71
67377;BME280;54261;46.086;6.588;2023-04-07T20:39:48;92563.72;;;6.07;42.04
67377;BME280;54261;46.086;6.588;2023-04-07T20:44:50;92560.78;;;5.90;41.79
67377;BME280;54261;46.086;6.588;2023-04-07T20:49:54;92548.66;;;5.00;42.96
67377;BME280;54261;46.086;6.588;2023-04-07T20:54:55;92563.88;;;5.24;42.65
67377;BME280;54261;46.086;6.588;2023-04-07T20:59:57;92564.94;;;5.52;43.16
67377;BME280;54261;46.086;6.588;2023-04-07T21:05:00;92555.56;;;5.31;43.01
67377;BME280;54261;46.086;6.588;2023-04-07T21:10:03;92559.03;;;5.02;43.11
67377;BME280;54261;46.086;6.588;2023-04-07T21:15:05;92566.84;;;5.47;42.51
67377;BME280;54261;46.086;6.588;2023-04-07T21:20:07;92555.22;;;4.78;43.52
67377;BME280;54261;46.086;6.588;2023-04-07T21:25:09;92572.44;;;5.94;42.65
67377;BME280;54261;46.086;6.588;2023-04-07T21:30:12;92569.97;;;5.78;42.63
67377;BME280;54261;46.086;6.588;2023-04-07T21:35:19;92566.88;;;5.41;42.79
67377;BME280;54261;46.086;6.588;2023-04-07T21:40:21;92576.03;;;5.60;42.54
67377;BME280;54261;46.086;6.588;2023-04-07T21:45:23;92570.38;;;5.66;42.21
67377;BME280;54261;46.086;6.588;2023-04-07T21:50:25;92537.88;;;5.45;41.72
67377;BME280;54261;46.086;6.588;2023-04-07T21:55:27;92559.09;;;5.50;41.50
67377;BME280;54261;46.086;6.588;2023-04-07T22:00:29;92560.47;;;5.48;42.63
67377;BME280;54261;46.086;6.588;2023-04-07T22:05:32;92551.44;;;4.55;43.31
67377;BME280;54261;46.086;6.588;2023-04-07T22:10:34;92542.53;;;5.29;41.72
67377;BME280;54261;46.086;6.588;2023-04-07T22:15:36;92539.53;;;5.60;40.81
67377;BME280;54261;46.086;6.588;2023-04-07T22:20:38;92553.50;;;5.52;41.31
67377;BME280;54261;46.086;6.588;2023-04-07T22:25:40;92547.41;;;4.92;43.32
67377;BME280;54261;46.086;6.588;2023-04-07T22:30:42;92550.16;;;5.11;42.71
67377;BME280;54261;46.086;6.588;2023-04-07T22:35:44;92551.16;;;5.21;42.67
67377;BME280;54261;46.086;6.588;2023-04-07T22:40:46;92536.88;;;5.06;42.39
67377;BME280;54261;46.086;6.588;2023-04-07T22:45:47;92543.81;;;5.61;41.59
67377;BME280;54261;46.086;6.588;2023-04-07T22:50:49;92523.38;;;5.27;41.33
67377;BME280;54261;46.086;6.588;2023-04-07T22:55:51;92546.31;;;4.64;42.21
67377;BME280;54261;46.086;6.588;2023-04-07T23:00:53;92544.03;;;4.52;42.73
67377;BME280;54261;46.086;6.588;2023-04-07T23:05:55;92548.94;;;5.28;41.98
67377;BME280;54261;46.086;6.588;2023-04-07T23:10:57;92520.25;;;5.20;41.00
67377;BME280;54261;46.086;6.588;2023-04-07T23:15:59;92519.22;;;5.21;40.86
67377;BME280;54261;46.086;6.588;2023-04-07T23:21:04;92542.16;;;5.41;40.77
67377;BME280;54261;46.086;6.588;2023-04-07T23:26:06;92536.44;;;4.99;40.52
67377;BME280;54261;46.086;6.588;2023-04-07T23:31:08;92535.31;;;5.05;39.71
67377;BME280;54261;46.086;6.588;2023-04-07T23:36:10;92545.78;;;4.62;40.42
67377;BME280;54261;46.086;6.588;2023-04-07T23:41:11;92548.34;;;5.07;39.72
67377;BME280;54261;46.086;6.588;2023-04-07T23:46:13;92550.41;;;4.51;39.79
67377;BME280;54261;46.086;6.588;2023-04-07T23:51:15;92547.88;;;4.70;41.36
67377;BME280;54261;46.086;6.588;2023-04-07T23:56:17;92548.34;;;5.07;40.34
